Time;durP1;ratioP1;P1;durP2;ratioP2;P2;SDS_P1;SDS_P2;PMS_P1;PMS_P2;Temp;Humidity;BMP_temperature;BMP_pressure;BME280_temperature;BME280_humidity;BME280_pressure;Samples;Min_cycle;Max_cycle;Signal;HPM_P1;HPM_P2
2021/01/27 00:00:39;;;;;;;;;;;;;;;20.22;36.25;99400.81;5095622;28;875;-58
2021/01/27 00:03:04;;;;;;;;;;;;;;;20.05;36.33;99394.22;5096103;28;775;-56
2021/01/27 00:05:31;;;;;;;;;;;;;;;19.45;37.60;99391.28;5095874;28;795;-56
2021/01/27 00:07:56;;;;;;;;;;;;;;;20.01;36.48;99390.50;5091762;28;1975;-54
2021/01/27 00:10:22;;;;;;;;;;;;;;;20.77;35.14;99383.28;5075731;28;831;-56
2021/01/27 00:12:47;;;;;;;;;;;;;;;20.32;35.98;99394.91;5079289;28;963;-53
2021/01/27 00:15:14;;;;;;;;;;;;;;;20.03;36.35;99404.78;5079486;28;760;-55
2021/01/27 00:17:39;;;;;;;;;;;;;;;19.16;38.35;99411.22;5078877;28;753;-56
2021/01/27 00:20:06;;;;;;;;;;;;;;;20.25;35.97;99425.00;5079112;28;772;-55
2021/01/27 00:22:32;;;;;;;;;;;;;;;20.77;34.83;99430.25;5077328;28;955;-51
2021/01/27 00:24:57;;;;;;;;;;;;;;;20.26;35.89;99429.34;5079331;28;764;-50
2021/01/27 00:27:23;;;;;;;;;;;;;;;20.07;36.44;99425.06;5078842;28;1984;-56
2021/01/27 00:29:48;;;;;;;;;;;;;;;19.66;37.22;99435.50;5079130;28;955;-49
2021/01/27 00:32:13;;;;;;;;;;;;;;;20.49;35.52;99433.47;5078641;28;1233;-56
2021/01/27 00:34:39;;;;;;;;;;;;;;;20.51;35.38;99425.69;5089469;28;1185;-54
2021/01/27 00:37:04;;;;;;;;;;;;;;;20.11;36.29;99434.28;5088269;28;1256;-54
2021/01/27 00:39:30;;;;;;;;;;;;;;;19.76;36.61;99428.84;5081952;28;1220;-56
2021/01/27 00:41:55;;;;;;;;;;;;;;;19.87;36.62;99423.03;5078607;28;755;-54
2021/01/27 00:44:21;;;;;;;;;;;;;;;20.61;35.15;99429.22;5086097;28;1011;-55
2021/01/27 00:46:47;;;;;;;;;;;;;;;20.51;35.16;99428.44;5098075;28;1055;-52
2021/01/27 00:49:13;;;;;;;;;;;;;;;20.15;35.94;99424.22;5098782;28;1977;-51
2021/01/27 00:51:38;;;;;;;;;;;;;;;19.53;37.22;99416.41;5098154;28;1196;-55
2021/01/27 00:54:04;;;;;;;;;;;;;;;19.94;36.55;99412.28;5098575;28;787;-53
2021/01/27 00:56:29;;;;;;;;;;;;;;;20.74;34.83;99405.28;5080649;28;1275;-56
2021/01/27 00:58:55;;;;;;;;;;;;;;;20.25;35.79;99397.41;5079440;28;1158;-55
2021/01/27 01:01:47;;;;;;;;;;;;;;;20.01;36.19;99407.06;5095091;28;1086;-52
2021/01/27 01:04:22;;;;;;;;;;;;;;;19.64;37.17;99390.09;5081044;28;1045;-56
2021/01/27 01:06:47;;;;;;;;;;;;;;;20.59;35.14;99387.28;5098047;28;799;-54
2021/01/27 01:09:13;;;;;;;;;;;;;;;20.38;35.50;99385.28;5083645;28;1910;-54
2021/01/27 01:11:38;;;;;;;;;;;;;;;20.11;36.24;99376.34;5078015;28;831;-54
2021/01/27 01:14:03;;;;;;;;;;;;;;;19.57;37.03;99373.25;5078416;28;963;-57
2021/01/27 01:16:29;;;;;;;;;;;;;;;19.71;37.23;99379.38;5077501;28;832;-56
2021/01/27 01:18:54;;;;;;;;;;;;;;;20.58;35.13;99366.34;5078000;28;815;-57
2021/01/27 01:21:20;;;;;;;;;;;;;;;20.28;35.64;99377.41;5077872;28;752;-56
2021/01/27 01:23:45;;;;;;;;;;;;;;;20.09;35.96;99370.34;5077357;28;779;-56
2021/01/27 01:26:11;;;;;;;;;;;;;;;19.41;37.43;99357.22;5077686;28;863;-56
2021/01/27 01:28:36;;;;;;;;;;;;;;;20.20;35.86;99343.16;5078219;28;1910;-51
2021/01/27 01:31:02;;;;;;;;;;;;;;;20.75;34.73;99352.44;5077106;28;807;-56
2021/01/27 01:33:28;;;;;;;;;;;;;;;20.12;36.10;99341.28;5077827;28;909;-56
2021/01/27 01:35:53;;;;;;;;;;;;;;;19.94;36.43;99344.13;5077562;28;847;-49
2021/01/27 01:38:19;;;;;;;;;;;;;;;19.41;37.57;99350.91;5077018;28;728;-55
2021/01/27 01:40:45;;;;;;;;;;;;;;;20.38;35.38;99357.69;5077432;28;740;-55
2021/01/27 01:43:11;;;;;;;;;;;;;;;20.65;34.80;99363.84;5078185;28;1005;-56
2021/01/27 01:45:40;;;;;;;;;;;;;;;20.18;35.83;99351.78;5077187;28;760;-54
2021/01/27 01:48:14;;;;;;;;;;;;;;;19.99;36.10;99363.25;5077290;28;1918;-56
2021/01/27 01:50:39;;;;;;;;;;;;;;;19.86;36.52;99361.50;5059351;28;827;-53
2021/01/27 01:53:05;;;;;;;;;;;;;;;20.73;34.70;99376.81;5059176;28;530;-56
2021/01/27 01:55:30;;;;;;;;;;;;;;;20.27;35.56;99360.03;5077107;28;809;-55
2021/01/27 01:57:55;;;;;;;;;;;;;;;20.05;36.11;99363.88;5077260;28;938;-55
2021/01/27 02:00:22;;;;;;;;;;;;;;;19.53;37.06;99372.28;5077230;28;760;-56
2021/01/27 02:02:47;;;;;;;;;;;;;;;19.98;36.08;99356.13;5059427;28;820;-55
2021/01/27 02:05:15;;;;;;;;;;;;;;;20.76;34.66;99340.25;5076975;28;804;-56
2021/01/27 02:07:40;;;;;;;;;;;;;;;20.40;35.32;99338.84;5078097;28;1910;-56
2021/01/27 02:10:06;;;;;;;;;;;;;;;20.10;35.69;99349.06;5097414;28;779;-56
2021/01/27 02:12:31;;;;;;;;;;;;;;;19.52;36.63;99334.81;5096121;28;1028;-53
2021/01/27 02:15:03;;;;;;;;;;;;;;;20.27;35.43;99339.91;5097200;28;803;-51
2021/01/27 02:17:31;;;;;;;;;;;;;;;20.77;34.31;99349.34;5097148;28;804;-55
2021/01/27 02:20:00;;;;;;;;;;;;;;;20.15;35.79;99346.94;5097277;28;775;-55
2021/01/27 02:22:30;;;;;;;;;;;;;;;19.91;35.98;99349.47;5096892;28;784;-55
2021/01/27 02:24:59;;;;;;;;;;;;;;;19.60;36.95;99353.28;5097219;28;843;-56
2021/01/27 02:27:24;;;;;;;;;;;;;;;20.62;34.84;99348.78;5096866;28;1976;-56
2021/01/27 02:29:49;;;;;;;;;;;;;;;20.52;34.73;99352.75;5095510;28;946;-57
2021/01/27 02:32:18;;;;;;;;;;;;;;;20.28;35.58;99352.56;5078819;28;815;-54
2021/01/27 02:34:49;;;;;;;;;;;;;;;19.83;36.10;99351.94;5096485;28;826;-55
2021/01/27 02:37:14;;;;;;;;;;;;;;;19.74;36.78;99342.88;5078615;28;799;-56
2021/01/27 02:39:42;;;;;;;;;;;;;;;20.67;34.85;99356.06;5079074;28;762;-53
2021/01/27 02:42:13;;;;;;;;;;;;;;;20.29;35.26;99340.38;5078765;28;776;-51
2021/01/27 02:44:41;;;;;;;;;;;;;;;20.04;35.79;99345.69;5077275;28;957;-55
2021/01/27 02:47:15;;;;;;;;;;;;;;;19.31;37.33;99357.56;5096671;28;1910;-50
2021/01/27 02:49:48;;;;;;;;;;;;;;;20.03;35.81;99365.34;5078787;28;839;-52
2021/01/27 02:52:24;;;;;;;;;;;;;;;20.79;34.31;99347.03;5078572;28;776;-55
2021/01/27 02:54:51;;;;;;;;;;;;;;;19.94;35.83;99351.59;5078532;28;751;-56
2021/01/27 02:57:16;;;;;;;;;;;;;;;19.88;35.92;99341.88;5096739;28;767;-55
2021/01/27 03:00:08;;;;;;;;;;;;;;;19.48;36.87;99357.53;5095344;28;958;-51
2021/01/27 03:02:44;;;;;;;;;;;;;;;20.57;34.84;99345.41;5091477;28;1655;-55
2021/01/27 03:05:18;;;;;;;;;;;;;;;20.36;35.00;99335.13;5078337;28;816;-54
2021/01/27 03:07:44;;;;;;;;;;;;;;;20.16;35.29;99334.75;5076344;28;1972;-56
2021/01/27 03:10:12;;;;;;;;;;;;;;;19.45;36.84;99330.63;5058491;28;791;-54
2021/01/27 03:12:37;;;;;;;;;;;;;;;20.07;35.71;99328.47;5058619;28;1455;-54
2021/01/27 03:15:05;;;;;;;;;;;;;;;20.84;34.12;99324.75;5076241;28;716;-55
2021/01/27 03:17:30;;;;;;;;;;;;;;;20.17;35.25;99327.28;5076109;28;483;-55
2021/01/27 03:19:57;;;;;;;;;;;;;;;20.15;35.40;99308.31;5058161;28;1417;-53
2021/01/27 03:22:30;;;;;;;;;;;;;;;19.18;37.61;99315.28;5058320;28;776;-52
2021/01/27 03:24:58;;;;;;;;;;;;;;;20.35;35.21;99314.19;5057841;28;998;-55
2021/01/27 03:27:24;;;;;;;;;;;;;;;20.78;34.13;99315.06;5057917;28;1917;-55
2021/01/27 03:29:49;;;;;;;;;;;;;;;20.24;35.17;99313.75;5076945;28;993;-55
2021/01/27 03:32:35;;;;;;;;;;;;;;;19.98;35.77;99319.44;5076149;28;851;-56
2021/01/27 03:35:10;;;;;;;;;;;;;;;19.56;36.69;99325.56;5034910;28;1036;-51
2021/01/27 03:37:42;;;;;;;;;;;;;;;20.61;34.53;99335.31;5076062;28;824;-55
2021/01/27 03:40:09;;;;;;;;;;;;;;;20.60;34.55;99317.91;5058357;28;812;-52
2021/01/27 03:42:41;;;;;;;;;;;;;;;20.18;35.19;99313.16;5058409;28;1033;-55
2021/01/27 03:45:07;;;;;;;;;;;;;;;19.60;36.23;99311.94;5058139;28;558;-54
2021/01/27 03:47:34;;;;;;;;;;;;;;;19.59;36.62;99313.88;5061060;28;1909;-56
2021/01/27 03:50:08;;;;;;;;;;;;;;;20.54;34.74;99318.44;5061663;28;534;-56
2021/01/27 03:52:41;;;;;;;;;;;;;;;20.35;34.84;99315.00;5061749;28;733;-54
2021/01/27 03:55:10;;;;;;;;;;;;;;;20.06;35.59;99313.06;5062198;28;781;-54
2021/01/27 03:57:36;;;;;;;;;;;;;;;19.41;36.70;99315.88;5079647;28;1009;-57
2021/01/27 04:00:04;;;;;;;;;;;;;;;20.21;35.28;99317.19;5061663;28;732;-56
2021/01/27 04:02:37;;;;;;;;;;;;;;;20.77;33.93;99317.00;5079922;28;609;-51
2021/01/27 04:05:03;;;;;;;;;;;;;;;20.02;35.49;99323.16;5079093;28;828;-55
2021/01/27 04:07:28;;;;;;;;;;;;;;;19.95;35.60;99328.38;5079230;28;1984;-53
2021/01/27 04:09:53;;;;;;;;;;;;;;;19.63;36.33;99336.09;5099569;28;1221;-51
2021/01/27 04:12:19;;;;;;;;;;;;;;;20.60;34.32;99339.22;5099111;28;756;-53
2021/01/27 04:14:44;;;;;;;;;;;;;;;20.54;34.32;99337.78;5098611;28;1008;-56
2021/01/27 04:17:16;;;;;;;;;;;;;;;20.16;35.31;99339.47;5099268;28;788;-56
2021/01/27 04:19:42;;;;;;;;;;;;;;;19.66;36.20;99349.22;5099328;28;798;-56
2021/01/27 04:22:07;;;;;;;;;;;;;;;19.79;36.04;99339.94;5099546;28;751;-56
2021/01/27 04:24:32;;;;;;;;;;;;;;;20.69;34.21;99348.25;5099484;28;744;-58
2021/01/27 04:26:58;;;;;;;;;;;;;;;20.12;35.23;99342.09;5098878;28;855;-45
2021/01/27 04:29:23;;;;;;;;;;;;;;;19.94;35.67;99341.34;5097999;28;1905;-55
2021/01/27 04:31:49;;;;;;;;;;;;;;;19.48;36.71;99342.94;5099899;28;751;-49
2021/01/27 04:34:14;;;;;;;;;;;;;;;20.37;35.09;99342.28;5098756;28;803;-48
2021/01/27 04:36:40;;;;;;;;;;;;;;;20.50;34.41;99338.44;5098995;28;768;-51
2021/01/27 04:39:05;;;;;;;;;;;;;;;20.07;35.09;99338.72;5098979;28;768;-48
2021/01/27 04:41:31;;;;;;;;;;;;;;;19.71;35.78;99334.44;5098466;28;751;-51
2021/01/27 04:43:56;;;;;;;;;;;;;;;19.85;35.79;99342.53;5098061;28;1021;-51
2021/01/27 04:46:42;;;;;;;;;;;;;;;20.67;34.26;99323.75;5098657;28;1121;-49
2021/01/27 04:49:09;;;;;;;;;;;;;;;20.24;34.97;99340.56;5098228;28;2045;-54
2021/01/27 04:51:47;;;;;;;;;;;;;;;20.17;35.03;99343.84;5080877;28;1289;-56
2021/01/27 04:54:16;;;;;;;;;;;;;;;19.52;36.29;99340.31;5081244;28;836;-56
2021/01/27 04:57:00;;;;;;;;;;;;;;;20.46;34.42;99343.03;5080137;28;767;-56
2021/01/27 04:59:46;;;;;;;;;;;;;;;20.60;34.16;99358.53;5086296;28;1215;-58
2021/01/27 05:02:26;;;;;;;;;;;;;;;20.09;34.98;99364.00;5042141;28;1039;-49
2021/01/27 05:05:10;;;;;;;;;;;;;;;19.49;35.97;99345.38;5081927;28;951;-50
2021/01/27 05:07:45;;;;;;;;;;;;;;;20.21;34.85;99325.47;5079129;28;1968;-56
2021/01/27 05:10:24;;;;;;;;;;;;;;;20.87;33.47;99348.13;5093462;28;798;-51
2021/01/27 05:12:50;;;;;;;;;;;;;;;21.37;32.75;99333.38;5060683;28;1014;-49
2021/01/27 05:15:15;;;;;;;;;;;;;;;20.63;33.77;99349.59;5060214;28;890;-54
2021/01/27 05:17:41;;;;;;;;;;;;;;;20.33;34.56;99331.09;5060250;28;800;-46
2021/01/27 05:20:07;;;;;;;;;;;;;;;19.72;35.42;99334.09;5060117;28;842;-47
2021/01/27 05:22:33;;;;;;;;;;;;;;;20.11;35.08;99336.91;5077845;28;827;-57
2021/01/27 05:24:58;;;;;;;;;;;;;;;20.98;33.58;99365.91;5078098;28;764;-57
2021/01/27 05:27:31;;;;;;;;;;;;;;;20.42;34.19;99382.69;5059659;28;1913;-56
2021/01/27 05:30:08;;;;;;;;;;;;;;;20.28;34.45;99366.38;5059930;28;866;-56
2021/01/27 05:32:46;;;;;;;;;;;;;;;19.54;36.01;99365.63;5059947;28;1429;-54
2021/01/27 05:35:44;;;;;;;;;;;;;;;20.65;33.86;99369.38;5077777;28;799;-58
2021/01/27 05:38:18;;;;;;;;;;;;;;;20.59;33.92;99384.53;5022410;28;1218;-59
2021/01/27 05:40:44;;;;;;;;;;;;;;;20.35;34.21;99385.97;5077387;28;748;-58
2021/01/27 05:43:19;;;;;;;;;;;;;;;19.74;35.34;99384.25;5060227;28;1018;-58
2021/01/27 05:45:45;;;;;;;;;;;;;;;20.45;34.07;99366.25;5059650;28;788;-59
2021/01/27 05:48:27;;;;;;;;;;;;;;;21.08;32.94;99375.75;5058339;28;1978;-59
2021/01/27 05:51:12;;;;;;;;;;;;;;;20.54;33.76;99362.63;5062574;28;1269;-58
2021/01/27 05:53:38;;;;;;;;;;;;;;;20.23;34.28;99338.94;5057436;28;824;-60
2021/01/27 05:56:12;;;;;;;;;;;;;;;20.18;34.52;99408.94;5057921;28;697;-58
2021/01/27 05:58:39;;;;;;;;;;;;;;;21.05;32.81;99395.78;5057579;28;954;-55
2021/01/27 06:01:13;;;;;;;;;;;;;;;20.54;33.82;99388.31;5056433;28;792;-54
2021/01/27 06:03:40;;;;;;;;;;;;;;;20.24;34.17;99401.28;5057035;28;768;-57
2021/01/27 06:06:09;;;;;;;;;;;;;;;19.55;35.61;99367.25;5055530;28;1258;-49
2021/01/27 06:08:34;;;;;;;;;;;;;;;20.41;33.88;99378.31;5065122;28;1909;-57
2021/01/27 06:11:01;;;;;;;;;;;;;;;21.07;32.65;99383.25;5075651;28;827;-54
2021/01/27 06:13:30;;;;;;;;;;;;;;;20.34;33.97;99381.59;5074343;28;1412;-58
2021/01/27 06:15:56;;;;;;;;;;;;;;;20.07;34.66;99372.63;5077005;28;819;-52
2021/01/27 06:18:29;;;;;;;;;;;;;;;20.08;34.54;99382.53;5076605;28;787;-47
2021/01/27 06:21:06;;;;;;;;;;;;;;;21.00;33.03;99394.03;5077145;28;780;-61
2021/01/27 06:23:34;;;;;;;;;;;;;;;20.54;33.35;99371.75;5076986;28;843;-46
2021/01/27 06:26:02;;;;;;;;;;;;;;;20.09;34.21;99375.88;5075682;28;772;-53
2021/01/27 06:28:33;;;;;;;;;;;;;;;19.68;34.82;99382.78;5075470;28;1987;-55
2021/01/27 06:31:05;;;;;;;;;;;;;;;20.51;33.11;99381.50;5076866;28;819;-56
2021/01/27 06:33:37;;;;;;;;;;;;;;;20.04;33.88;99378.81;5076412;28;855;-45
2021/01/27 06:36:22;;;;;;;;;;;;;;;19.91;34.36;99375.13;5075587;28;875;-53
2021/01/27 06:38:48;;;;;;;;;;;;;;;19.49;35.25;99364.66;5075505;28;812;-45
2021/01/27 06:41:18;;;;;;;;;;;;;;;20.33;33.28;99352.38;5076274;28;851;-56
2021/01/27 06:43:43;;;;;;;;;;;;;;;20.95;32.12;99377.66;5065275;28;1135;-47
2021/01/27 06:46:17;;;;;;;;;;;;;;;20.24;33.12;99351.59;5056677;28;823;-56
2021/01/27 06:48:42;;;;;;;;;;;;;;;19.95;33.48;99362.31;5058069;28;1998;-47
2021/01/27 06:51:11;;;;;;;;;;;;;;;19.55;34.31;99328.66;5076538;28;834;-49
2021/01/27 06:53:55;;;;;;;;;;;;;;;20.61;32.74;99369.25;5076619;28;783;-44
2021/01/27 06:56:27;;;;;;;;;;;;;;;20.72;32.47;99350.38;5075943;28;864;-46
2021/01/27 06:58:55;;;;;;;;;;;;;;;20.24;33.24;99329.53;5076635;28;955;-56
2021/01/27 07:01:27;;;;;;;;;;;;;;;19.74;34.31;99320.81;5076655;28;752;-54
2021/01/27 07:04:11;;;;;;;;;;;;;;;20.13;33.53;99321.63;5058124;28;764;-57
2021/01/27 07:06:52;;;;;;;;;;;;;;;20.97;31.72;99309.84;5076557;28;816;-56
2021/01/27 07:09:20;;;;;;;;;;;;;;;20.43;32.67;99299.53;5073343;28;1971;-56
2021/01/27 07:11:46;;;;;;;;;;;;;;;20.15;33.22;99313.81;5096636;28;953;-52
2021/01/27 07:14:17;;;;;;;;;;;;;;;19.55;34.69;99328.66;5081913;28;890;-55
2021/01/27 07:16:58;;;;;;;;;;;;;;;20.48;32.93;99320.59;5076339;28;764;-58
2021/01/27 07:19:35;;;;;;;;;;;;;;;20.48;32.86;99326.13;5076128;28;752;-49
2021/01/27 07:22:07;;;;;;;;;;;;;;;20.09;33.60;99315.16;5080431;28;820;-46
2021/01/27 07:24:59;;;;;;;;;;;;;;;19.36;35.01;99315.25;5079701;28;852;-58
2021/01/27 07:27:24;;;;;;;;;;;;;;;19.93;34.06;99311.34;5049097;28;1987;-57
2021/01/27 07:29:57;;;;;;;;;;;;;;;20.76;32.60;99304.34;5080936;28;962;-54
2021/01/27 07:32:32;;;;;;;;;;;;;;;20.30;33.26;99314.38;5062142;28;839;-48
2021/01/27 07:34:57;;;;;;;;;;;;;;;20.06;33.71;99304.78;5080156;28;787;-56
2021/01/27 07:37:39;;;;;;;;;;;;;;;19.35;35.39;99308.94;5080068;28;796;-52
2021/01/27 07:40:12;;;;;;;;;;;;;;;20.43;33.19;99296.75;5061622;28;828;-58
2021/01/27 07:42:42;;;;;;;;;;;;;;;20.91;32.39;99299.34;5062586;28;1213;-58
2021/01/27 07:45:11;;;;;;;;;;;;;;;20.23;33.55;99272.69;5082434;28;752;-58
2021/01/27 07:47:51;;;;;;;;;;;;;;;19.86;34.03;99277.97;5099449;28;1906;-55
2021/01/27 07:50:17;;;;;;;;;;;;;;;19.63;34.84;99276.25;5100147;28;804;-60
2021/01/27 07:53:01;;;;;;;;;;;;;;;20.56;33.08;99247.13;5099984;28;875;-50
2021/01/27 07:55:34;;;;;;;;;;;;;;;20.26;33.49;99236.97;5099911;28;799;-60
2021/01/27 07:58:05;;;;;;;;;;;;;;;20.02;34.19;99243.16;5080539;28;957;-48
2021/01/27 08:00:37;;;;;;;;;;;;;;;19.54;34.82;99217.56;5081181;28;805;-58
2021/01/27 08:03:05;;;;;;;;;;;;;;;20.04;34.03;99227.06;5099734;28;759;-54
2021/01/27 08:05:34;;;;;;;;;;;;;;;20.77;32.74;99228.59;5099844;28;850;-52
2021/01/27 08:08:01;;;;;;;;;;;;;;;20.18;33.78;99246.13;5077233;28;1906;-57
2021/01/27 08:10:28;;;;;;;;;;;;;;;20.01;33.92;99241.53;5079104;28;863;-57
2021/01/27 08:12:54;;;;;;;;;;;;;;;19.48;35.02;99222.44;5061508;28;983;-47
2021/01/27 08:15:26;;;;;;;;;;;;;;;20.33;33.58;99222.63;5061422;28;776;-57
2021/01/27 08:17:51;;;;;;;;;;;;;;;21.00;32.19;99215.22;5078901;28;751;-54
2021/01/27 08:20:24;;;;;;;;;;;;;;;20.38;33.13;99194.81;5079199;28;780;-57
2021/01/27 08:22:53;;;;;;;;;;;;;;;20.08;33.67;99203.16;5079038;28;816;-58
2021/01/27 08:25:37;;;;;;;;;;;;;;;19.43;34.99;99233.69;5061156;28;856;-54
2021/01/27 08:28:23;;;;;;;;;;;;;;;20.56;33.14;99211.25;5079249;28;1973;-58
2021/01/27 08:31:07;;;;;;;;;;;;;;;20.43;33.16;99224.97;5064727;28;1746;-55
2021/01/27 08:33:38;;;;;;;;;;;;;;;20.02;34.06;99240.38;5088409;28;1213;-59
2021/01/27 08:36:07;;;;;;;;;;;;;;;19.34;35.23;99238.41;5098632;28;1323;-58
2021/01/27 08:38:33;;;;;;;;;;;;;;;20.06;33.84;99246.81;5098853;28;732;-52
2021/01/27 08:40:59;;;;;;;;;;;;;;;20.85;32.34;99213.91;5085090;28;1169;-55
2021/01/27 08:43:25;;;;;;;;;;;;;;;20.35;33.31;99234.13;5097251;28;826;-53
2021/01/27 08:45:50;;;;;;;;;;;;;;;20.06;33.84;99260.63;5098775;28;818;-61
2021/01/27 08:48:24;;;;;;;;;;;;;;;19.67;34.59;99257.09;5080380;28;1976;-56
2021/01/27 08:50:52;;;;;;;;;;;;;;;19.94;34.29;99272.38;5080562;28;1234;-58
2021/01/27 08:53:21;;;;;;;;;;;;;;;20.75;32.57;99269.59;5080963;28;731;-59
2021/01/27 08:55:47;;;;;;;;;;;;;;;20.40;33.08;99275.34;5098815;28;724;-56
2021/01/27 08:58:23;;;;;;;;;;;;;;;20.06;33.85;99282.69;5092477;28;1086;-60
2021/01/27 09:00:48;;;;;;;;;;;;;;;19.48;34.88;99274.81;5078255;28;798;-53
2021/01/27 09:03:33;;;;;;;;;;;;;;;19.88;34.17;99303.25;5060645;28;796;-59
2021/01/27 09:05:58;;;;;;;;;;;;;;;20.79;32.55;99284.34;5078787;28;768;-60
2021/01/27 09:08:28;;;;;;;;;;;;;;;20.11;33.63;99279.75;5085332;28;1971;-59
2021/01/27 09:10:54;;;;;;;;;;;;;;;19.95;33.95;99259.41;5098435;28;824;-53
2021/01/27 09:13:23;;;;;;;;;;;;;;;19.59;34.71;99258.75;5097376;28;1021;-52
2021/01/27 09:15:58;;;;;;;;;;;;;;;20.57;33.15;99262.56;5096829;28;875;-58
2021/01/27 09:18:23;;;;;;;;;;;;;;;20.48;32.71;99259.84;5079913;28;863;-57
2021/01/27 09:20:49;;;;;;;;;;;;;;;20.12;33.72;99250.22;5088793;28;1547;-51
2021/01/27 09:23:16;;;;;;;;;;;;;;;19.54;34.79;99263.63;5059970;28;833;-58
2021/01/27 09:25:43;;;;;;;;;;;;;;;19.78;34.32;99274.06;5077799;28;820;-53
2021/01/27 09:28:09;;;;;;;;;;;;;;;20.61;32.76;99280.09;5078450;28;1909;-53
2021/01/27 09:30:34;;;;;;;;;;;;;;;20.22;33.28;99284.91;5077495;28;804;-50
2021/01/27 09:33:12;;;;;;;;;;;;;;;20.03;33.89;99288.88;5077710;28;780;-61
2021/01/27 09:35:37;;;;;;;;;;;;;;;19.54;34.70;99288.44;5077911;28;740;-56
2021/01/27 09:38:04;;;;;;;;;;;;;;;20.39;33.37;99301.34;5077331;28;898;-48
2021/01/27 09:40:36;;;;;;;;;;;;;;;20.80;32.28;99287.91;5077641;28;760;-59
2021/01/27 09:43:02;;;;;;;;;;;;;;;20.16;33.38;99292.53;5078094;28;1071;-52
2021/01/27 09:45:28;;;;;;;;;;;;;;;19.85;34.07;99293.69;5076989;28;879;-57
2021/01/27 09:47:54;;;;;;;;;;;;;;;19.60;34.76;99268.63;5077054;28;1982;-58
2021/01/27 09:50:19;;;;;;;;;;;;;;;20.45;32.86;99255.81;5059616;28;840;-60
2021/01/27 09:52:49;;;;;;;;;;;;;;;20.37;33.02;99253.13;5055256;28;884;-61
2021/01/27 09:55:14;;;;;;;;;;;;;;;20.05;33.75;99261.78;5055484;28;831;-61
2021/01/27 09:57:40;;;;;;;;;;;;;;;19.46;34.50;99270.78;5060134;28;816;-60
2021/01/27 10:00:09;;;;;;;;;;;;;;;20.09;33.70;99271.00;5076145;28;1006;-55
2021/01/27 10:02:37;;;;;;;;;;;;;;;20.87;32.26;99256.97;5097229;28;859;-51
2021/01/27 10:05:23;;;;;;;;;;;;;;;20.25;33.11;99260.19;5097505;28;811;-53
2021/01/27 10:07:48;;;;;;;;;;;;;;;20.01;33.54;99269.13;5094125;28;1909;-59
2021/01/27 10:10:18;;;;;;;;;;;;;;;19.39;34.93;99287.84;5059053;28;828;-60
2021/01/27 10:12:44;;;;;;;;;;;;;;;20.46;32.85;99265.72;5077630;28;965;-60
2021/01/27 10:15:16;;;;;;;;;;;;;;;20.81;32.04;99251.63;5076448;28;840;-60
2021/01/27 10:17:41;;;;;;;;;;;;;;;20.08;33.67;99268.59;5042391;28;1119;-61
2021/01/27 10:20:17;;;;;;;;;;;;;;;20.05;33.45;99281.09;5058798;28;1207;-55
2021/01/27 10:22:49;;;;;;;;;;;;;;;19.67;34.36;99279.16;5057828;28;868;-54
2021/01/27 10:25:27;;;;;;;;;;;;;;;20.52;32.70;99261.63;5059173;28;1468;-50
2021/01/27 10:28:17;;;;;;;;;;;;;;;20.36;32.93;99252.31;5077011;28;1968;-55
2021/01/27 10:30:44;;;;;;;;;;;;;;;20.11;33.59;99235.59;5066558;28;1282;-59
2021/01/27 10:33:28;;;;;;;;;;;;;;;19.30;34.83;99254.78;5077011;28;792;-59
2021/01/27 10:35:53;;;;;;;;;;;;;;;20.22;33.25;99260.06;5076575;28;744;-59
2021/01/27 10:38:21;;;;;;;;;;;;;;;20.74;32.20;99248.63;5076897;28;752;-50
2021/01/27 10:41:12;;;;;;;;;;;;;;;20.05;33.39;99264.53;5076725;28;803;-59
2021/01/27 10:43:38;;;;;;;;;;;;;;;19.54;34.29;99260.88;5073034;28;962;-55
2021/01/27 10:46:25;;;;;;;;;;;;;;;19.76;34.36;99279.13;5057979;28;815;-61
2021/01/27 10:48:51;;;;;;;;;;;;;;;20.68;32.70;99274.84;5058984;28;1906;-63
2021/01/27 10:51:16;;;;;;;;;;;;;;;21.20;31.66;99268.81;5076343;28;744;-60
2021/01/27 10:53:45;;;;;;;;;;;;;;;20.74;32.31;99276.25;5076410;28;839;-62
2021/01/27 10:56:14;;;;;;;;;;;;;;;20.34;33.03;99276.69;5076090;28;856;-59
2021/01/27 10:58:39;;;;;;;;;;;;;;;19.77;34.13;99300.84;5058929;28;998;-64
2021/01/27 11:01:04;;;;;;;;;;;;;;;19.94;33.90;99285.38;5076155;28;787;-61
2021/01/27 11:03:30;;;;;;;;;;;;;;;20.77;32.57;99283.06;5076357;28;732;-60
2021/01/27 11:05:55;;;;;;;;;;;;;;;20.36;33.20;99299.25;5076610;28;808;-54
2021/01/27 11:08:25;;;;;;;;;;;;;;;20.03;33.66;99286.13;5065412;28;1961;-51
2021/01/27 11:10:50;;;;;;;;;;;;;;;19.43;34.83;99275.03;5078734;28;732;-59
2021/01/27 11:13:16;;;;;;;;;;;;;;;19.98;33.90;99308.41;5095276;28;1002;-57
2021/01/27 11:15:41;;;;;;;;;;;;;;;20.80;32.49;99305.28;5096179;28;839;-49
2021/01/27 11:18:07;;;;;;;;;;;;;;;20.13;33.40;99320.81;5096252;28;875;-60
2021/01/27 11:20:32;;;;;;;;;;;;;;;19.85;34.30;99357.13;5096577;28;851;-44
2021/01/27 11:22:58;;;;;;;;;;;;;;;19.19;35.44;99369.25;5096265;28;855;-57
2021/01/27 11:25:24;;;;;;;;;;;;;;;19.72;34.51;99378.22;5096283;28;787;-58
2021/01/27 11:27:49;;;;;;;;;;;;;;;20.61;33.21;99382.25;5095144;28;1971;-57
2021/01/27 11:30:16;;;;;;;;;;;;;;;20.55;32.97;99403.72;5096156;28;732;-56
2021/01/27 11:32:41;;;;;;;;;;;;;;;20.36;33.74;99406.91;5096440;28;867;-46
2021/01/27 11:35:07;;;;;;;;;;;;;;;19.91;34.24;99427.56;5096448;28;815;-58
2021/01/27 11:37:32;;;;;;;;;;;;;;;19.78;34.80;99432.09;5096025;28;839;-45
2021/01/27 11:39:58;;;;;;;;;;;;;;;20.49;33.43;99436.22;5096132;28;748;-49
2021/01/27 11:42:23;;;;;;;;;;;;;;;20.36;33.91;99437.28;5096399;28;862;-48
2021/01/27 11:44:48;;;;;;;;;;;;;;;19.94;34.44;99435.16;5094695;28;1009;-56
2021/01/27 11:47:14;;;;;;;;;;;;;;;19.45;35.63;99445.59;5095867;28;1230;-57
2021/01/27 11:49:42;;;;;;;;;;;;;;;19.92;34.60;99453.19;5096505;28;1914;-60
2021/01/27 11:52:08;;;;;;;;;;;;;;;20.62;33.38;99478.59;5096289;28;782;-59
2021/01/27 11:54:33;;;;;;;;;;;;;;;20.23;34.04;99490.75;5096085;28;803;-59
2021/01/27 11:57:00;;;;;;;;;;;;;;;20.02;34.29;99480.44;5096090;28;835;-42
2021/01/27 11:59:26;;;;;;;;;;;;;;;19.39;35.52;99516.63;5094785;28;973;-57
2021/01/27 12:01:51;;;;;;;;;;;;;;;20.04;34.51;99514.00;5095982;28;787;-57
2021/01/27 12:04:17;;;;;;;;;;;;;;;20.63;33.32;99540.94;5096119;28;850;-53
2021/01/27 12:06:42;;;;;;;;;;;;;;;20.00;34.55;99533.16;5095901;28;1012;-42
2021/01/27 12:09:08;;;;;;;;;;;;;;;19.79;34.75;99544.06;5085883;28;1992;-57
2021/01/27 12:11:33;;;;;;;;;;;;;;;19.04;36.20;99549.66;5079335;28;843;-57
2021/01/27 12:13:59;;;;;;;;;;;;;;;19.94;34.62;99542.75;5060848;28;1177;-41
2021/01/27 12:16:24;;;;;;;;;;;;;;;20.63;33.42;99542.91;5078853;28;831;-46
2021/01/27 12:18:49;;;;;;;;;;;;;;;20.07;34.24;99526.34;5079373;28;783;-59
2021/01/27 12:21:15;;;;;;;;;;;;;;;19.90;34.94;99519.72;5078970;28;768;-53
2021/01/27 12:23:40;;;;;;;;;;;;;;;19.30;36.30;99516.59;5078997;28;791;-49
2021/01/27 12:26:06;;;;;;;;;;;;;;;19.93;35.32;99523.78;5079229;28;721;-56
2021/01/27 12:28:31;;;;;;;;;;;;;;;20.66;33.66;99520.16;5068103;28;1985;-57
2021/01/27 12:30:57;;;;;;;;;;;;;;;20.39;33.90;99500.13;5079284;28;849;-57
2021/01/27 12:33:22;;;;;;;;;;;;;;;20.03;34.83;99486.75;5078971;28;901;-58
2021/01/27 12:35:48;;;;;;;;;;;;;;;19.47;35.64;99468.97;5078803;28;824;-59
2021/01/27 12:38:13;;;;;;;;;;;;;;;20.17;34.58;99468.03;5078596;28;780;-58
2021/01/27 12:40:39;;;;;;;;;;;;;;;20.84;33.03;99455.41;5078827;28;808;-58
2021/01/27 12:43:04;;;;;;;;;;;;;;;20.18;34.35;99447.59;5078741;28;930;-59
2021/01/27 12:45:30;;;;;;;;;;;;;;;20.12;34.26;99429.59;5088721;28;784;-58
2021/01/27 12:47:56;;;;;;;;;;;;;;;19.26;35.95;99415.63;5078459;28;1966;-56
2021/01/27 12:50:22;;;;;;;;;;;;;;;20.10;34.33;99394.03;5078285;28;800;-44
2021/01/27 12:52:47;;;;;;;;;;;;;;;20.88;33.09;99421.59;5078508;28;834;-47
2021/01/27 12:55:13;;;;;;;;;;;;;;;20.25;33.90;99425.00;5094212;28;811;-48
2021/01/27 12:57:39;;;;;;;;;;;;;;;20.06;34.23;99442.75;5078234;28;1253;-52
2021/01/27 13:00:05;;;;;;;;;;;;;;;19.33;35.58;99437.97;5078365;28;833;-58
2021/01/27 13:02:31;;;;;;;;;;;;;;;20.15;34.43;99431.69;5086281;28;1186;-56
2021/01/27 13:04:56;;;;;;;;;;;;;;;20.90;32.71;99424.81;5077954;28;783;-56
2021/01/27 13:07:22;;;;;;;;;;;;;;;20.40;33.62;99434.66;5084801;28;1905;-56
2021/01/27 13:09:47;;;;;;;;;;;;;;;20.21;33.89;99416.56;5088697;28;1143;-52
2021/01/27 13:12:12;;;;;;;;;;;;;;;19.52;35.17;99415.59;5077735;28;740;-59
2021/01/27 13:14:38;;;;;;;;;;;;;;;20.39;34.00;99386.13;5095477;28;1355;-57